TXKF/BDA METAR and TAF weather

Enter ICAO airport designator
Station Type Date Time Source
TXKF METAR 2022/11/30 17:55 UTC NOAA

TXKF 301755Z 08011KT 9999 FEW040 SCT062 22/14 Q1021


Station Type Date Time Source
TXKF Decoded METAR 2022/11/30 17:55 UTC NOAA

Bermuda, Bermuda (TXKF) 32-22N 064-41W
Nov 30, 2022 - 12:55 PM EST / 2022.11.30 1755 UTC
Wind: from the E (080 degrees) at 13 MPH (11 KT):0
Visibility: greater than 7 mile(s):0
Sky conditions: partly cloudy
Temperature: 71 F (22 C)
Dew Point: 57 F (14 C)
Relative Humidity: 60%
Pressure (altimeter): 30.15 in. Hg (1021 hPa)
ob: TXKF 301755Z 08011KT 9999 FEW040 SCT062 22/14 Q1021
cycle: 18

Station Type Date Time Source
TXKF TAF 2022/11/30 18:52 UTC NOAA

TAF TXKF 301743Z 3018/0118 09012KT 9999 VCSH FEW040 SCT060
BECMG 0100/0104 14010KT SCT030
BECMG 0107/0111 19009KT
BECMG 0115/0118 24012KT

Example: see airport list